createdAt,value
2018-09-18T00:01:54.500Z,19.70
2018-09-18T00:04:23.448Z,19.63
2018-09-18T00:06:52.432Z,19.60
2018-09-18T00:09:21.535Z,19.64
2018-09-18T00:11:50.483Z,19.63
2018-09-18T00:14:19.398Z,19.57
2018-09-18T00:16:48.644Z,19.52
2018-09-18T00:19:17.523Z,19.39
2018-09-18T00:21:46.538Z,19.23
2018-09-18T00:24:15.769Z,19.14
2018-09-18T00:26:44.565Z,19.13
2018-09-18T00:29:13.451Z,19.12
2018-09-18T00:31:42.470Z,19.06
2018-09-18T00:34:11.297Z,19.11
2018-09-18T00:36:40.193Z,19.06
2018-09-18T00:39:10.182Z,19.03
2018-09-18T00:41:39.216Z,18.97
2018-09-18T00:44:08.037Z,18.89
2018-09-18T00:46:36.926Z,18.84
2018-09-18T00:49:05.789Z,18.71
2018-09-18T00:51:34.728Z,18.69
2018-09-18T00:54:04.043Z,18.64
2018-09-18T00:56:33.060Z,18.69
2018-09-18T00:59:02.013Z,18.76
2018-09-18T01:01:30.896Z,18.73
2018-09-18T01:03:59.885Z,18.69
2018-09-18T01:06:28.894Z,18.59
2018-09-18T01:08:58.151Z,18.58
2018-09-18T01:11:27.128Z,18.49
2018-09-18T01:13:56.138Z,18.47
2018-09-18T01:16:25.125Z,18.50
2018-09-18T01:18:54.163Z,18.43
2018-09-18T01:21:23.092Z,18.36
2018-09-18T01:23:52.000Z,18.30
2018-09-18T01:26:21.097Z,18.28
2018-09-18T01:28:50.128Z,18.33
2018-09-18T01:31:18.970Z,18.40
2018-09-18T01:33:47.901Z,18.43
2018-09-18T01:36:16.799Z,18.41
2018-09-18T01:38:45.769Z,18.34
2018-09-18T01:41:14.800Z,18.31
2018-09-18T01:43:43.723Z,18.27
2018-09-18T01:46:12.925Z,18.15
2018-09-18T01:48:41.869Z,18.13
2018-09-18T01:51:10.745Z,18.06
2018-09-18T01:53:39.650Z,18.12
2018-09-18T01:56:08.736Z,18.23
2018-09-18T01:58:37.798Z,18.31
2018-09-18T02:01:07.097Z,18.30
2018-09-18T02:03:35.992Z,18.21
2018-09-18T02:06:04.816Z,18.25
2018-09-18T02:08:33.678Z,18.27
2018-09-18T02:11:02.796Z,18.28
2018-09-18T02:13:31.733Z,18.26
2018-09-18T02:16:00.665Z,18.19
2018-09-18T02:18:29.433Z,18.21
2018-09-18T02:20:58.307Z,18.21
2018-09-18T02:23:27.904Z,18.16
2018-09-18T02:25:56.783Z,18.18
2018-09-18T02:28:25.710Z,18.14
2018-09-18T02:30:54.803Z,18.09
2018-09-18T02:33:23.667Z,18.14
2018-09-18T02:35:52.590Z,18.14
2018-09-18T02:38:21.818Z,18.06
2018-09-18T02:40:50.691Z,18.07
2018-09-18T02:43:19.566Z,18.00
2018-09-18T02:45:48.696Z,18.04
2018-09-18T02:48:17.672Z,18.02
2018-09-18T02:50:46.681Z,17.97
2018-09-18T02:53:15.567Z,18.00
2018-09-18T02:55:44.460Z,17.94
2018-09-18T02:58:17.805Z,17.89
2018-09-18T03:00:46.691Z,17.92
2018-09-18T03:03:15.671Z,17.96
2018-09-18T03:05:44.973Z,17.93
2018-09-18T03:08:13.834Z,17.98
2018-09-18T03:10:42.665Z,17.96
2018-09-18T03:13:11.628Z,17.94
2018-09-18T03:15:40.564Z,17.89
2018-09-18T03:18:09.669Z,17.82
2018-09-18T03:20:39.074Z,17.88
2018-09-18T03:23:07.907Z,17.85
2018-09-18T03:25:36.866Z,17.72
2018-09-18T03:28:05.768Z,17.67
2018-09-18T03:30:34.773Z,17.67
2018-09-18T03:33:04.141Z,17.64
2018-09-18T03:35:32.992Z,17.61
2018-09-18T03:38:09.371Z,17.49
2018-09-18T03:40:38.605Z,17.34
2018-09-18T03:43:07.431Z,17.43
2018-09-18T03:45:36.646Z,17.39
2018-09-18T03:48:06.072Z,17.44
2018-09-18T03:50:35.119Z,17.56
2018-09-18T03:53:04.074Z,17.66
2018-09-18T03:55:33.088Z,17.58
2018-09-18T03:58:02.096Z,17.42
2018-09-18T04:00:31.084Z,17.35
2018-09-18T04:03:00.430Z,17.48
2018-09-18T04:05:29.301Z,17.40
2018-09-18T04:07:58.260Z,17.32
2018-09-18T04:10:28.712Z,17.47
2018-09-18T04:12:57.599Z,17.50
2018-09-18T04:15:26.703Z,17.47
2018-09-18T04:17:56.017Z,17.44
2018-09-18T04:20:25.126Z,17.48
2018-09-18T04:22:53.985Z,17.51
2018-09-18T04:25:24.790Z,17.56
2018-09-18T04:27:53.890Z,17.56
2018-09-18T04:31:32.861Z,17.55
2018-09-18T04:36:40.745Z,17.76
2018-09-18T04:39:16.740Z,17.87
2018-09-18T04:41:48.193Z,17.98
2018-09-18T04:44:17.339Z,18.04
2018-09-18T04:46:46.415Z,18.21
2018-09-18T04:49:33.497Z,18.36
2018-09-18T04:52:03.326Z,18.44
2018-09-18T04:54:32.428Z,18.60
2018-09-18T04:57:07.609Z,18.81
2018-09-18T04:59:37.435Z,18.87
2018-09-18T05:02:10.284Z,18.94
2018-09-18T05:04:39.405Z,18.96
2018-09-18T05:07:08.292Z,19.01
2018-09-18T05:09:37.540Z,19.06
2018-09-18T05:12:08.516Z,19.07
2018-09-18T05:14:41.201Z,18.96
2018-09-18T05:17:13.811Z,18.98
2018-09-18T05:19:43.065Z,19.06
2018-09-18T05:22:16.933Z,19.12
2018-09-18T05:24:47.907Z,19.22
2018-09-18T05:27:18.247Z,19.29
2018-09-18T05:29:47.366Z,19.36
2018-09-18T05:32:16.784Z,19.45
2018-09-18T05:34:49.092Z,19.49
2018-09-18T05:37:31.112Z,19.67
2018-09-18T05:40:11.983Z,19.73
2018-09-18T05:42:41.216Z,19.79
2018-09-18T05:45:10.701Z,19.79
2018-09-18T05:47:39.726Z,19.73
2018-09-18T05:50:08.754Z,19.76
2018-09-18T05:52:38.217Z,19.78
2018-09-18T05:55:07.413Z,19.80
2018-09-18T05:57:36.416Z,19.80
2018-09-18T06:00:06.132Z,19.80
2018-09-18T06:02:34.871Z,19.80
2018-09-18T06:05:04.045Z,19.80
2018-09-18T06:07:33.579Z,19.81
2018-09-18T06:10:03.484Z,19.84
2018-09-18T06:12:32.420Z,19.87
2018-09-18T06:15:01.959Z,19.93
2018-09-18T06:17:31.858Z,19.99
2018-09-18T06:20:00.844Z,20.10
2018-09-18T06:22:30.109Z,20.15
2018-09-18T06:24:59.097Z,20.20
2018-09-18T06:27:28.126Z,20.30
2018-09-18T06:29:57.177Z,20.38
2018-09-18T06:32:30.065Z,20.45
2018-09-18T06:35:12.577Z,20.55
2018-09-18T06:37:52.964Z,20.56
2018-09-18T06:40:22.385Z,20.61
2018-09-18T06:42:52.294Z,20.68
2018-09-18T06:45:23.627Z,20.66
2018-09-18T06:47:53.644Z,20.69
2018-09-18T06:50:25.318Z,20.64
2018-09-18T06:52:54.220Z,20.72
2018-09-18T06:55:23.078Z,20.67
2018-09-18T06:57:54.150Z,20.85
2018-09-18T07:00:23.361Z,21.00
2018-09-18T07:02:52.329Z,21.05
2018-09-18T07:05:21.354Z,21.16
2018-09-18T07:07:51.217Z,21.32
2018-09-18T07:10:22.199Z,21.44
2018-09-18T07:12:50.979Z,21.54
2018-09-18T07:15:20.130Z,21.54
2018-09-18T07:17:50.249Z,21.53
2018-09-18T07:20:19.212Z,21.50
2018-09-18T07:22:48.310Z,21.51
2018-09-18T07:25:17.682Z,21.53
2018-09-18T07:27:47.655Z,21.43
2018-09-18T07:30:16.936Z,21.34
2018-09-18T07:32:45.724Z,21.28
2018-09-18T07:35:14.569Z,21.34
2018-09-18T07:37:43.424Z,21.55
2018-09-18T07:40:12.292Z,21.68
2018-09-18T07:42:41.169Z,21.86
2018-09-18T07:45:10.469Z,22.06
2018-09-18T07:47:39.386Z,22.18
2018-09-18T07:50:08.450Z,21.50
2018-09-18T07:52:37.518Z,21.88
2018-09-18T07:55:06.380Z,21.98
2018-09-18T07:57:35.357Z,22.27
2018-09-18T08:00:04.632Z,22.43
2018-09-18T08:02:33.556Z,22.60
2018-09-18T08:05:02.357Z,22.76
2018-09-18T08:07:31.718Z,22.90
2018-09-18T08:10:00.659Z,22.95
2018-09-18T08:12:29.607Z,22.92
2018-09-18T08:14:59.394Z,23.03
2018-09-18T08:17:28.233Z,22.94
2018-09-18T08:19:57.534Z,22.76
2018-09-18T08:22:26.562Z,22.65
2018-09-18T08:24:55.592Z,22.47
2018-09-18T08:27:24.477Z,22.48
2018-09-18T08:29:53.350Z,22.36
2018-09-18T08:32:22.425Z,22.44
2018-09-18T08:34:51.298Z,22.53
2018-09-18T08:37:21.042Z,22.35
2018-09-18T08:39:49.823Z,22.64
2018-09-18T08:42:18.917Z,22.84
2018-09-18T08:44:48.319Z,23.13
2018-09-18T08:47:17.211Z,23.41
2018-09-18T08:49:46.030Z,23.49
2018-09-18T08:52:15.095Z,23.38
2018-09-18T08:54:44.122Z,23.61
2018-09-18T08:57:13.179Z,23.83
2018-09-18T08:59:42.465Z,23.73
2018-09-18T09:02:11.293Z,23.20
2018-09-18T09:04:40.151Z,23.33
2018-09-18T09:07:09.581Z,23.43
2018-09-18T09:09:38.420Z,23.52
2018-09-18T09:12:07.499Z,23.66
2018-09-18T09:14:36.519Z,23.80
2018-09-18T09:17:05.436Z,24.09
2018-09-18T09:19:34.392Z,24.14
2018-09-18T09:22:03.389Z,24.00
2018-09-18T09:24:32.038Z,24.08
2018-09-18T09:27:01.112Z,23.70
2018-09-18T09:29:30.743Z,23.60
2018-09-18T09:31:59.583Z,24.03
2018-09-18T09:34:28.533Z,24.32
2018-09-18T09:36:57.843Z,24.09
2018-09-18T09:39:26.697Z,24.28
2018-09-18T09:41:55.557Z,23.94
2018-09-18T09:44:24.694Z,23.79
2018-09-18T09:46:54.668Z,23.94
2018-09-18T09:49:23.685Z,24.07
2018-09-18T09:51:52.568Z,24.06
2018-09-18T09:54:21.709Z,24.20
2018-09-18T09:56:50.604Z,24.38
2018-09-18T09:59:19.508Z,24.59
2018-09-18T10:02:55.391Z,24.80
2018-09-18T10:05:24.237Z,24.87
2018-09-18T10:07:53.289Z,24.72
2018-09-18T10:10:22.197Z,24.90
2018-09-18T10:12:52.252Z,24.89
2018-09-18T10:15:21.222Z,24.99
2018-09-18T10:17:50.183Z,24.95
2018-09-18T10:20:19.345Z,25.07
2018-09-18T10:22:48.178Z,25.34
2018-09-18T10:25:17.227Z,25.21
2018-09-18T10:27:46.417Z,24.96
2018-09-18T10:30:15.392Z,24.83
2018-09-18T10:32:44.494Z,24.88
2018-09-18T10:35:13.220Z,24.92
2018-09-18T10:37:42.281Z,25.12
2018-09-18T10:40:11.298Z,25.11
2018-09-18T10:42:40.348Z,24.78
2018-09-18T10:45:09.726Z,24.90
2018-09-18T10:47:38.951Z,24.91
2018-09-18T10:50:08.699Z,24.89
2018-09-18T10:52:37.695Z,24.97
2018-09-18T10:55:06.699Z,24.96
2018-09-18T10:57:35.589Z,25.01
2018-09-18T11:00:04.616Z,25.01
2018-09-18T11:02:33.460Z,25.15
2018-09-18T11:05:02.393Z,25.07
2018-09-18T11:07:31.461Z,25.22
2018-09-18T11:10:00.381Z,25.36
2018-09-18T11:12:29.209Z,25.28
2018-09-18T11:14:58.174Z,25.37
2018-09-18T11:17:27.147Z,25.55
2018-09-18T11:19:56.265Z,25.59
2018-09-18T11:22:25.383Z,25.57
2018-09-18T11:24:54.074Z,25.38
2018-09-18T11:27:23.288Z,25.52
2018-09-18T11:29:52.355Z,25.74
2018-09-18T11:32:21.172Z,25.68
2018-09-18T11:34:50.506Z,25.59
2018-09-18T11:37:19.338Z,25.70
2018-09-18T11:39:48.349Z,25.68
2018-09-18T11:42:17.716Z,25.87
2018-09-18T11:44:46.762Z,25.88
2018-09-18T11:47:15.694Z,25.98
2018-09-18T11:49:44.621Z,26.19
2018-09-18T11:52:13.469Z,26.29
2018-09-18T11:54:42.439Z,26.46
2018-09-18T11:57:11.772Z,26.61
2018-09-18T11:59:40.634Z,26.59
2018-09-18T12:02:09.553Z,26.15
2018-09-18T12:04:39.014Z,26.06
2018-09-18T12:07:07.763Z,26.17
2018-09-18T12:09:36.830Z,26.35
2018-09-18T12:12:06.051Z,26.20
2018-09-18T12:14:34.892Z,26.29
2018-09-18T12:17:03.948Z,26.47
2018-09-18T12:19:33.070Z,26.57
2018-09-18T12:22:02.027Z,26.57
2018-09-18T12:24:30.896Z,26.42
2018-09-18T12:26:59.888Z,26.40
2018-09-18T12:29:28.966Z,26.49
2018-09-18T12:31:57.932Z,26.65
2018-09-18T12:34:27.031Z,26.86
2018-09-18T12:36:55.983Z,26.94
2018-09-18T12:39:24.831Z,27.01
2018-09-18T12:41:54.293Z,27.02
2018-09-18T12:44:22.973Z,26.99
2018-09-18T12:46:51.953Z,26.59
2018-09-18T12:49:21.096Z,26.46
2018-09-18T12:51:49.961Z,26.54
2018-09-18T12:54:18.892Z,26.65
2018-09-18T12:56:48.369Z,26.67
2018-09-18T12:59:17.441Z,26.61
2018-09-18T13:01:46.230Z,26.68
2018-09-18T13:04:15.572Z,26.82
2018-09-18T13:06:44.436Z,26.95
2018-09-18T13:09:13.979Z,27.10
2018-09-18T13:11:42.984Z,27.16
2018-09-18T13:14:12.059Z,27.14
2018-09-18T13:16:41.149Z,26.92
2018-09-18T13:19:10.536Z,26.97
2018-09-18T13:21:39.436Z,26.92
2018-09-18T13:24:08.339Z,26.95
2018-09-18T13:26:37.451Z,26.77
2018-09-18T13:29:06.396Z,26.93
2018-09-18T13:31:35.332Z,26.82
2018-09-18T13:34:04.914Z,26.75
2018-09-18T13:36:33.885Z,26.79
2018-09-18T13:39:02.669Z,26.80
2018-09-18T13:41:31.569Z,26.74
2018-09-18T13:44:00.488Z,26.63
2018-09-18T13:46:29.500Z,26.76
2018-09-18T13:48:58.852Z,26.88
2018-09-18T13:51:28.786Z,26.70
2018-09-18T13:53:57.708Z,26.72
2018-09-18T13:56:27.231Z,26.74
2018-09-18T13:58:56.041Z,26.87
2018-09-18T14:01:24.989Z,26.78
2018-09-18T14:03:54.426Z,26.80
2018-09-18T14:06:23.378Z,26.97
2018-09-18T14:08:52.341Z,26.90
2018-09-18T14:11:21.480Z,26.75
2018-09-18T14:13:50.397Z,26.73
2018-09-18T14:16:19.253Z,26.69
2018-09-18T14:18:48.622Z,26.73
2018-09-18T14:21:17.549Z,26.88
2018-09-18T14:23:46.533Z,26.92
2018-09-18T14:26:15.486Z,26.82
2018-09-18T14:28:44.352Z,26.75
2018-09-18T14:31:13.205Z,26.90
2018-09-18T14:33:42.501Z,26.95
2018-09-18T14:36:11.375Z,27.04
2018-09-18T14:38:40.565Z,27.01
2018-09-18T14:41:09.995Z,26.87
2018-09-18T14:43:38.949Z,26.78
2018-09-18T14:46:07.955Z,26.75
2018-09-18T14:48:36.915Z,26.77
2018-09-18T14:51:05.823Z,26.56
2018-09-18T14:53:34.604Z,26.58
2018-09-18T14:56:03.933Z,26.62
2018-09-18T14:58:32.789Z,26.68
2018-09-18T15:01:01.668Z,26.67
2018-09-18T15:03:31.054Z,26.59
2018-09-18T15:05:59.907Z,26.46
2018-09-18T15:08:28.993Z,26.31
2018-09-18T15:10:58.165Z,26.26
2018-09-18T15:13:27.128Z,26.30
2018-09-18T15:15:56.056Z,26.37
2018-09-18T15:18:25.489Z,26.33
2018-09-18T15:20:54.429Z,26.27
2018-09-18T15:23:23.403Z,26.27
2018-09-18T15:25:52.385Z,26.19
2018-09-18T15:28:21.305Z,26.23
2018-09-18T15:30:50.188Z,26.18
2018-09-18T15:33:19.374Z,26.17
2018-09-18T15:35:48.328Z,26.19
2018-09-18T15:38:17.292Z,26.13
2018-09-18T15:40:46.352Z,26.03
2018-09-18T15:43:15.330Z,25.92
2018-09-18T15:45:44.457Z,25.84
2018-09-18T15:48:13.861Z,25.88
2018-09-18T15:50:42.860Z,25.90
2018-09-18T15:53:11.936Z,25.82
2018-09-18T15:55:40.911Z,25.75
2018-09-18T15:58:10.096Z,25.64
2018-09-18T16:00:39.156Z,25.62
2018-09-18T16:03:08.376Z,25.60
2018-09-18T16:05:37.331Z,25.47
2018-09-18T16:08:06.260Z,25.30
2018-09-18T16:10:35.691Z,25.31
2018-09-18T16:13:04.593Z,25.19
2018-09-18T16:18:02.717Z,25.02
2018-09-18T16:20:31.754Z,24.96
2018-09-18T16:23:00.804Z,24.99
2018-09-18T16:25:30.174Z,24.87
2018-09-18T16:27:59.142Z,24.78
2018-09-18T16:30:28.036Z,24.76
2018-09-18T16:32:57.011Z,24.69
2018-09-18T16:35:26.172Z,24.69
2018-09-18T16:37:54.982Z,24.64
2018-09-18T16:40:24.596Z,24.57
2018-09-18T16:42:56.390Z,24.47
2018-09-18T16:45:25.872Z,24.42
2018-09-18T16:47:54.781Z,24.22
2018-09-18T16:50:23.687Z,24.03
2018-09-18T16:52:52.962Z,23.89
2018-09-18T16:55:21.809Z,23.80
2018-09-18T16:57:51.323Z,23.73
2018-09-18T17:00:20.266Z,23.70
2018-09-18T17:02:49.197Z,23.64
2018-09-18T17:05:18.138Z,23.64
2018-09-18T17:07:47.533Z,23.50
2018-09-18T17:10:16.533Z,23.53
2018-09-18T17:12:45.386Z,23.46
2018-09-18T17:15:14.965Z,23.31
2018-09-18T17:17:43.844Z,23.25
2018-09-18T17:20:12.928Z,23.16
2018-09-18T17:22:42.340Z,23.03
2018-09-18T17:25:11.082Z,23.06
2018-09-18T17:27:40.057Z,23.03
2018-09-18T17:30:09.327Z,22.93
2018-09-18T17:32:38.283Z,22.85
2018-09-18T17:35:07.397Z,22.87
2018-09-18T17:37:36.594Z,22.74
2018-09-18T17:40:05.837Z,22.62
2018-09-18T17:42:34.797Z,22.49
2018-09-18T17:45:04.734Z,22.43
2018-09-18T17:47:33.826Z,22.42
2018-09-18T17:50:02.674Z,22.32
2018-09-18T17:52:31.977Z,22.37
2018-09-18T17:55:00.949Z,22.27
2018-09-18T17:57:33.384Z,22.17
2018-09-18T18:00:02.450Z,22.16
2018-09-18T18:02:31.657Z,22.12
2018-09-18T18:05:01.532Z,22.21
2018-09-18T18:07:30.491Z,22.18
2018-09-18T18:09:59.533Z,22.16
2018-09-18T18:12:28.512Z,22.20
2018-09-18T18:14:57.523Z,22.31
2018-09-18T18:17:26.460Z,22.26
2018-09-18T18:19:55.574Z,22.17
2018-09-18T18:22:24.597Z,22.14
2018-09-18T18:24:53.544Z,22.14
2018-09-18T18:27:24.425Z,22.18
2018-09-18T18:29:53.212Z,22.20
2018-09-18T18:32:22.245Z,22.13
2018-09-18T18:34:51.890Z,22.03
2018-09-18T18:37:20.785Z,21.83
2018-09-18T18:39:49.543Z,21.80
2018-09-18T18:42:19.220Z,21.68
2018-09-18T18:44:48.269Z,21.64
2018-09-18T18:47:17.863Z,21.65
2018-09-18T18:49:47.250Z,21.64
2018-09-18T18:52:16.078Z,21.64
2018-09-18T18:54:45.160Z,21.59
2018-09-18T18:57:14.124Z,21.55
2018-09-18T18:59:43.043Z,21.54
2018-09-18T19:02:12.072Z,21.53
2018-09-18T19:04:41.021Z,21.43
2018-09-18T19:07:09.868Z,21.31
2018-09-18T19:09:38.722Z,21.30
2018-09-18T19:12:08.074Z,21.17
2018-09-18T19:14:36.952Z,21.00
2018-09-18T19:17:05.850Z,20.88
2018-09-18T19:19:35.368Z,20.76
2018-09-18T19:22:04.333Z,20.70
2018-09-18T19:24:33.424Z,20.53
2018-09-18T19:27:02.947Z,20.48
2018-09-18T19:29:31.921Z,20.45
2018-09-18T19:32:01.986Z,20.29
2018-09-18T19:34:31.579Z,20.27
2018-09-18T19:37:00.628Z,20.23
2018-09-18T19:39:29.865Z,20.20
2018-09-18T19:41:58.787Z,20.20
2018-09-18T19:44:28.502Z,20.19
2018-09-18T19:46:57.957Z,20.10
2018-09-18T19:49:26.860Z,20.07
2018-09-18T19:51:56.407Z,20.05
2018-09-18T19:54:25.478Z,20.03
2018-09-18T19:56:54.271Z,20.00
2018-09-18T19:59:23.307Z,19.93
2018-09-18T20:01:52.193Z,19.90
2018-09-18T20:04:21.326Z,19.77
2018-09-18T20:06:50.766Z,19.79
2018-09-18T20:09:19.892Z,19.71
2018-09-18T20:11:48.930Z,19.61
2018-09-18T20:14:17.899Z,19.48
2018-09-18T20:16:47.260Z,19.55
2018-09-18T20:19:16.151Z,19.47
2018-09-18T20:21:45.071Z,19.45
2018-09-18T20:24:13.994Z,19.36
2018-09-18T20:26:43.022Z,19.43
2018-09-18T20:29:11.872Z,19.36
2018-09-18T20:31:41.145Z,19.23
2018-09-18T20:34:10.118Z,19.23
2018-09-18T20:36:39.074Z,19.08
2018-09-18T20:39:09.983Z,19.10
2018-09-18T20:41:39.021Z,18.98
2018-09-18T20:44:07.912Z,19.08
2018-09-18T20:46:36.828Z,18.98
2018-09-18T20:51:34.641Z,18.98
2018-09-18T20:54:04.074Z,18.90
2018-09-18T20:56:32.840Z,18.82
2018-09-18T20:59:01.850Z,18.61
2018-09-18T21:01:31.936Z,18.56
2018-09-18T21:04:00.877Z,18.43
2018-09-18T21:06:29.704Z,18.39
2018-09-18T21:08:58.555Z,18.39
2018-09-18T21:11:27.554Z,18.43
2018-09-18T21:13:56.593Z,18.37
2018-09-18T21:16:25.773Z,18.25
2018-09-18T21:18:54.867Z,18.37
2018-09-18T21:21:24.061Z,18.43
2018-09-18T21:23:53.399Z,18.25
2018-09-18T21:26:22.155Z,18.20
2018-09-18T21:28:51.048Z,18.06
2018-09-18T21:31:20.658Z,17.95
2018-09-18T21:33:49.638Z,17.84
2018-09-18T21:36:18.581Z,17.87
2018-09-18T21:38:47.618Z,17.84
2018-09-18T21:41:16.629Z,17.79
2018-09-18T21:43:45.508Z,17.72
2018-09-18T21:46:14.732Z,17.60
2018-09-18T21:48:43.734Z,17.60
2018-09-18T21:51:12.486Z,17.65
2018-09-18T21:53:41.877Z,17.62
2018-09-18T21:56:10.852Z,17.63
2018-09-18T21:58:39.842Z,17.67
2018-09-18T22:01:08.883Z,17.59
2018-09-18T22:03:37.821Z,17.56
2018-09-18T22:06:06.749Z,17.61
2018-09-18T22:08:37.078Z,17.44
2018-09-18T22:11:05.995Z,17.40
2018-09-18T22:13:35.009Z,17.38
2018-09-18T22:16:04.040Z,17.39
2018-09-18T22:18:33.001Z,17.39
2018-09-18T22:21:01.940Z,17.39
2018-09-18T22:23:30.920Z,17.32
2018-09-18T22:25:59.886Z,17.35
2018-09-18T22:28:28.811Z,17.46
2018-09-18T22:30:57.728Z,17.38
2018-09-18T22:33:26.841Z,17.39
2018-09-18T22:35:55.810Z,17.34
2018-09-18T22:38:25.104Z,17.30
2018-09-18T22:40:54.068Z,17.21
2018-09-18T22:43:23.004Z,17.21
2018-09-18T22:45:53.328Z,17.11
2018-09-18T22:48:22.310Z,17.05
2018-09-18T22:50:51.205Z,17.07
2018-09-18T22:53:20.198Z,17.10
2018-09-18T22:55:49.095Z,17.13
2018-09-18T22:58:17.955Z,17.04
2018-09-18T23:00:47.134Z,16.96
2018-09-18T23:03:16.002Z,16.96
2018-09-18T23:05:44.919Z,17.00
2018-09-18T23:08:13.843Z,17.15
2018-09-18T23:10:42.732Z,17.05
2018-09-18T23:13:11.669Z,17.16
2018-09-18T23:15:40.611Z,17.14
2018-09-18T23:18:09.560Z,17.02
2018-09-18T23:20:38.563Z,16.91
2018-09-18T23:23:07.723Z,16.86
2018-09-18T23:25:36.698Z,16.90
2018-09-18T23:28:05.680Z,16.85
2018-09-18T23:30:34.921Z,16.76
2018-09-18T23:33:03.908Z,16.66
2018-09-18T23:35:32.935Z,16.65
2018-09-18T23:38:02.096Z,16.53
2018-09-18T23:40:30.998Z,16.52
2018-09-18T23:42:59.949Z,16.48
2018-09-18T23:45:28.816Z,16.52
2018-09-18T23:47:57.692Z,16.60
2018-09-18T23:50:26.507Z,16.46
2018-09-18T23:52:55.856Z,16.47
2018-09-18T23:55:24.781Z,16.43
2018-09-18T23:57:53.800Z,16.45
